sensor_id;sensor_type;location;lat;lon;timestamp;P1;durP1;ratioP1;P2;durP2;ratioP2
11608;SDS011;5860;52.018;8.536;2024-03-02T00:01:35;8.63;;;7.40;;
11608;SDS011;5860;52.018;8.536;2024-03-02T00:04:03;9.93;;;7.60;;
11608;SDS011;5860;52.018;8.536;2024-03-02T00:06:33;8.53;;;7.30;;
11608;SDS011;5860;52.018;8.536;2024-03-02T00:09:01;8.43;;;6.63;;
11608;SDS011;5860;52.018;8.536;2024-03-02T00:11:28;9.53;;;7.83;;
11608;SDS011;5860;52.018;8.536;2024-03-02T00:13:55;9.17;;;7.40;;
11608;SDS011;5860;52.018;8.536;2024-03-02T00:16:23;10.17;;;7.30;;
11608;SDS011;5860;52.018;8.536;2024-03-02T00:18:50;8.50;;;7.17;;
11608;SDS011;5860;52.018;8.536;2024-03-02T00:21:17;10.57;;;7.80;;
11608;SDS011;5860;52.018;8.536;2024-03-02T00:23:48;7.73;;;6.80;;
11608;SDS011;5860;52.018;8.536;2024-03-02T00:26:18;8.90;;;7.33;;
11608;SDS011;5860;52.018;8.536;2024-03-02T00:28:45;10.13;;;7.87;;
11608;SDS011;5860;52.018;8.536;2024-03-02T00:31:12;9.57;;;7.33;;
11608;SDS011;5860;52.018;8.536;2024-03-02T00:33:44;9.17;;;7.87;;
11608;SDS011;5860;52.018;8.536;2024-03-02T00:36:15;9.23;;;7.43;;
11608;SDS011;5860;52.018;8.536;2024-03-02T00:38:51;8.73;;;7.43;;
11608;SDS011;5860;52.018;8.536;2024-03-02T00:41:32;9.80;;;7.60;;
11608;SDS011;5860;52.018;8.536;2024-03-02T00:44:03;11.10;;;7.97;;
11608;SDS011;5860;52.018;8.536;2024-03-02T00:46:33;10.53;;;7.63;;
11608;SDS011;5860;52.018;8.536;2024-03-02T00:49:00;8.53;;;7.23;;
11608;SDS011;5860;52.018;8.536;2024-03-02T00:51:32;8.70;;;7.27;;
11608;SDS011;5860;52.018;8.536;2024-03-02T00:54:04;9.30;;;7.53;;
11608;SDS011;5860;52.018;8.536;2024-03-02T00:56:32;10.70;;;8.23;;
11608;SDS011;5860;52.018;8.536;2024-03-02T00:59:01;8.60;;;7.10;;
11608;SDS011;5860;52.018;8.536;2024-03-02T01:01:28;9.10;;;7.20;;
11608;SDS011;5860;52.018;8.536;2024-03-02T01:03:55;8.93;;;7.00;;
11608;SDS011;5860;52.018;8.536;2024-03-02T01:06:22;9.13;;;6.50;;
11608;SDS011;5860;52.018;8.536;2024-03-02T01:08:50;7.77;;;6.87;;
11608;SDS011;5860;52.018;8.536;2024-03-02T01:11:18;8.40;;;6.57;;
11608;SDS011;5860;52.018;8.536;2024-03-02T01:13:49;9.07;;;7.20;;
11608;SDS011;5860;52.018;8.536;2024-03-02T01:16:17;7.77;;;6.87;;
11608;SDS011;5860;52.018;8.536;2024-03-02T01:18:44;8.63;;;6.80;;
11608;SDS011;5860;52.018;8.536;2024-03-02T01:21:11;8.07;;;6.93;;
11608;SDS011;5860;52.018;8.536;2024-03-02T01:23:38;8.87;;;6.50;;
11608;SDS011;5860;52.018;8.536;2024-03-02T01:26:05;7.77;;;6.80;;
11608;SDS011;5860;52.018;8.536;2024-03-02T01:28:33;8.73;;;7.17;;
11608;SDS011;5860;52.018;8.536;2024-03-02T01:30:59;7.93;;;6.77;;
11608;SDS011;5860;52.018;8.536;2024-03-02T01:33:28;7.77;;;6.93;;
11608;SDS011;5860;52.018;8.536;2024-03-02T01:35:55;9.23;;;6.87;;
11608;SDS011;5860;52.018;8.536;2024-03-02T01:38:22;8.57;;;6.33;;
11608;SDS011;5860;52.018;8.536;2024-03-02T01:40:49;10.40;;;6.67;;
11608;SDS011;5860;52.018;8.536;2024-03-02T01:43:16;7.57;;;6.33;;
11608;SDS011;5860;52.018;8.536;2024-03-02T01:45:43;7.03;;;6.30;;
11608;SDS011;5860;52.018;8.536;2024-03-02T01:48:10;8.90;;;6.83;;
11608;SDS011;5860;52.018;8.536;2024-03-02T01:50:37;9.70;;;6.63;;
11608;SDS011;5860;52.018;8.536;2024-03-02T01:53:04;8.83;;;7.10;;
11608;SDS011;5860;52.018;8.536;2024-03-02T01:55:31;9.47;;;7.20;;
11608;SDS011;5860;52.018;8.536;2024-03-02T01:57:59;8.20;;;7.17;;
11608;SDS011;5860;52.018;8.536;2024-03-02T02:00:27;8.93;;;7.23;;
11608;SDS011;5860;52.018;8.536;2024-03-02T02:02:54;9.20;;;6.70;;
11608;SDS011;5860;52.018;8.536;2024-03-02T02:05:21;10.30;;;6.83;;
11608;SDS011;5860;52.018;8.536;2024-03-02T02:07:49;8.00;;;6.23;;
11608;SDS011;5860;52.018;8.536;2024-03-02T02:10:16;8.47;;;6.20;;
11608;SDS011;5860;52.018;8.536;2024-03-02T02:12:43;7.83;;;6.50;;
11608;SDS011;5860;52.018;8.536;2024-03-02T02:15:25;7.07;;;6.20;;
11608;SDS011;5860;52.018;8.536;2024-03-02T02:17:54;9.67;;;6.40;;
11608;SDS011;5860;52.018;8.536;2024-03-02T02:20:22;8.83;;;6.57;;
11608;SDS011;5860;52.018;8.536;2024-03-02T02:22:54;6.87;;;6.17;;
11608;SDS011;5860;52.018;8.536;2024-03-02T02:25:21;8.97;;;6.47;;
11608;SDS011;5860;52.018;8.536;2024-03-02T02:27:48;7.43;;;6.20;;
11608;SDS011;5860;52.018;8.536;2024-03-02T02:30:22;6.80;;;6.10;;
11608;SDS011;5860;52.018;8.536;2024-03-02T02:32:51;8.73;;;6.10;;
11608;SDS011;5860;52.018;8.536;2024-03-02T02:35:18;8.13;;;6.27;;
11608;SDS011;5860;52.018;8.536;2024-03-02T02:37:45;6.77;;;5.97;;
11608;SDS011;5860;52.018;8.536;2024-03-02T02:40:13;8.10;;;6.33;;
11608;SDS011;5860;52.018;8.536;2024-03-02T02:42:40;8.37;;;5.87;;
11608;SDS011;5860;52.018;8.536;2024-03-02T02:45:07;8.17;;;6.33;;
11608;SDS011;5860;52.018;8.536;2024-03-02T02:47:34;7.77;;;5.90;;
11608;SDS011;5860;52.018;8.536;2024-03-02T02:50:04;8.20;;;6.70;;
11608;SDS011;5860;52.018;8.536;2024-03-02T02:52:34;7.53;;;5.83;;
11608;SDS011;5860;52.018;8.536;2024-03-02T02:55:03;7.33;;;6.23;;
11608;SDS011;5860;52.018;8.536;2024-03-02T02:57:33;9.83;;;6.53;;
11608;SDS011;5860;52.018;8.536;2024-03-02T03:00:03;8.57;;;6.67;;
11608;SDS011;5860;52.018;8.536;2024-03-02T03:02:37;9.37;;;6.63;;
11608;SDS011;5860;52.018;8.536;2024-03-02T03:05:05;7.97;;;6.90;;
11608;SDS011;5860;52.018;8.536;2024-03-02T03:07:32;7.43;;;6.63;;
11608;SDS011;5860;52.018;8.536;2024-03-02T03:10:03;9.07;;;6.57;;
11608;SDS011;5860;52.018;8.536;2024-03-02T03:12:31;9.07;;;6.77;;
11608;SDS011;5860;52.018;8.536;2024-03-02T03:14:58;8.60;;;6.53;;
11608;SDS011;5860;52.018;8.536;2024-03-02T03:17:26;9.03;;;6.90;;
11608;SDS011;5860;52.018;8.536;2024-03-02T03:19:53;10.10;;;7.17;;
11608;SDS011;5860;52.018;8.536;2024-03-02T03:22:21;8.40;;;6.83;;
11608;SDS011;5860;52.018;8.536;2024-03-02T03:24:48;9.90;;;7.10;;
11608;SDS011;5860;52.018;8.536;2024-03-02T03:27:15;8.73;;;6.83;;
11608;SDS011;5860;52.018;8.536;2024-03-02T03:29:42;8.40;;;7.50;;
11608;SDS011;5860;52.018;8.536;2024-03-02T03:32:09;10.53;;;7.67;;
11608;SDS011;5860;52.018;8.536;2024-03-02T03:34:36;11.97;;;7.57;;
11608;SDS011;5860;52.018;8.536;2024-03-02T03:37:03;9.17;;;7.73;;
11608;SDS011;5860;52.018;8.536;2024-03-02T03:39:30;9.83;;;7.80;;
11608;SDS011;5860;52.018;8.536;2024-03-02T03:41:57;9.63;;;8.20;;
11608;SDS011;5860;52.018;8.536;2024-03-02T03:44:24;12.20;;;8.60;;
11608;SDS011;5860;52.018;8.536;2024-03-02T03:46:50;9.77;;;7.80;;
11608;SDS011;5860;52.018;8.536;2024-03-02T03:49:17;12.50;;;8.60;;
11608;SDS011;5860;52.018;8.536;2024-03-02T03:51:44;10.43;;;8.07;;
11608;SDS011;5860;52.018;8.536;2024-03-02T03:54:11;11.13;;;8.73;;
11608;SDS011;5860;52.018;8.536;2024-03-02T03:56:38;12.00;;;9.27;;
11608;SDS011;5860;52.018;8.536;2024-03-02T03:59:05;10.80;;;8.93;;
11608;SDS011;5860;52.018;8.536;2024-03-02T04:01:32;12.37;;;9.17;;
11608;SDS011;5860;52.018;8.536;2024-03-02T04:04:00;11.30;;;8.93;;
11608;SDS011;5860;52.018;8.536;2024-03-02T04:06:29;9.87;;;8.63;;
11608;SDS011;5860;52.018;8.536;2024-03-02T04:08:56;11.60;;;9.27;;
11608;SDS011;5860;52.018;8.536;2024-03-02T04:11:23;12.37;;;9.63;;
11608;SDS011;5860;52.018;8.536;2024-03-02T04:13:50;11.10;;;9.20;;
11608;SDS011;5860;52.018;8.536;2024-03-02T04:16:19;12.03;;;9.43;;
11608;SDS011;5860;52.018;8.536;2024-03-02T04:18:46;13.23;;;9.60;;
11608;SDS011;5860;52.018;8.536;2024-03-02T04:21:13;13.27;;;9.97;;
11608;SDS011;5860;52.018;8.536;2024-03-02T04:23:40;13.13;;;9.97;;
11608;SDS011;5860;52.018;8.536;2024-03-02T04:26:07;12.37;;;10.40;;
11608;SDS011;5860;52.018;8.536;2024-03-02T04:28:34;11.43;;;9.30;;
11608;SDS011;5860;52.018;8.536;2024-03-02T04:31:00;12.17;;;9.30;;
11608;SDS011;5860;52.018;8.536;2024-03-02T04:33:27;12.87;;;9.83;;
11608;SDS011;5860;52.018;8.536;2024-03-02T04:35:54;14.63;;;9.87;;
11608;SDS011;5860;52.018;8.536;2024-03-02T04:38:21;12.27;;;9.90;;
11608;SDS011;5860;52.018;8.536;2024-03-02T04:40:49;16.37;;;9.67;;
11608;SDS011;5860;52.018;8.536;2024-03-02T04:43:16;13.40;;;9.60;;
11608;SDS011;5860;52.018;8.536;2024-03-02T04:45:43;13.40;;;9.83;;
11608;SDS011;5860;52.018;8.536;2024-03-02T04:48:10;12.87;;;10.00;;
11608;SDS011;5860;52.018;8.536;2024-03-02T04:50:37;11.97;;;9.27;;
11608;SDS011;5860;52.018;8.536;2024-03-02T04:53:04;12.00;;;9.70;;
11608;SDS011;5860;52.018;8.536;2024-03-02T04:55:31;12.40;;;9.33;;
11608;SDS011;5860;52.018;8.536;2024-03-02T04:58:00;12.80;;;9.37;;
11608;SDS011;5860;52.018;8.536;2024-03-02T05:00:27;12.20;;;9.83;;
11608;SDS011;5860;52.018;8.536;2024-03-02T05:02:54;12.47;;;9.73;;
11608;SDS011;5860;52.018;8.536;2024-03-02T05:05:21;13.33;;;10.23;;
11608;SDS011;5860;52.018;8.536;2024-03-02T05:07:48;13.63;;;10.20;;
11608;SDS011;5860;52.018;8.536;2024-03-02T05:10:16;13.77;;;10.40;;
11608;SDS011;5860;52.018;8.536;2024-03-02T05:12:42;14.13;;;10.43;;
11608;SDS011;5860;52.018;8.536;2024-03-02T05:15:10;14.80;;;10.87;;
11608;SDS011;5860;52.018;8.536;2024-03-02T05:17:39;15.83;;;10.50;;
11608;SDS011;5860;52.018;8.536;2024-03-02T05:20:09;14.13;;;11.03;;
11608;SDS011;5860;52.018;8.536;2024-03-02T05:22:36;14.53;;;11.23;;
11608;SDS011;5860;52.018;8.536;2024-03-02T05:25:04;13.20;;;9.97;;
11608;SDS011;5860;52.018;8.536;2024-03-02T05:27:32;16.40;;;10.97;;
11608;SDS011;5860;52.018;8.536;2024-03-02T05:30:00;14.53;;;11.60;;
11608;SDS011;5860;52.018;8.536;2024-03-02T05:32:27;14.00;;;10.47;;
11608;SDS011;5860;52.018;8.536;2024-03-02T05:34:54;15.20;;;11.27;;
11608;SDS011;5860;52.018;8.536;2024-03-02T05:37:21;15.43;;;11.57;;
11608;SDS011;5860;52.018;8.536;2024-03-02T05:39:48;15.90;;;10.77;;
11608;SDS011;5860;52.018;8.536;2024-03-02T05:42:15;15.03;;;10.87;;
11608;SDS011;5860;52.018;8.536;2024-03-02T05:44:45;16.37;;;10.23;;
11608;SDS011;5860;52.018;8.536;2024-03-02T05:47:13;16.03;;;11.20;;
11608;SDS011;5860;52.018;8.536;2024-03-02T05:49:40;17.10;;;10.90;;
11608;SDS011;5860;52.018;8.536;2024-03-02T05:52:07;14.90;;;10.43;;
11608;SDS011;5860;52.018;8.536;2024-03-02T05:54:33;13.63;;;11.10;;
11608;SDS011;5860;52.018;8.536;2024-03-02T05:57:00;14.40;;;10.87;;
11608;SDS011;5860;52.018;8.536;2024-03-02T05:59:43;14.00;;;10.00;;
11608;SDS011;5860;52.018;8.536;2024-03-02T06:02:10;13.73;;;10.30;;
11608;SDS011;5860;52.018;8.536;2024-03-02T06:04:37;13.47;;;10.17;;
11608;SDS011;5860;52.018;8.536;2024-03-02T06:07:04;14.73;;;10.93;;
11608;SDS011;5860;52.018;8.536;2024-03-02T06:09:31;14.77;;;10.27;;
11608;SDS011;5860;52.018;8.536;2024-03-02T06:11:58;16.10;;;11.53;;
11608;SDS011;5860;52.018;8.536;2024-03-02T06:14:25;14.87;;;10.10;;
11608;SDS011;5860;52.018;8.536;2024-03-02T06:16:52;13.67;;;10.80;;
11608;SDS011;5860;52.018;8.536;2024-03-02T06:19:19;15.87;;;11.20;;
11608;SDS011;5860;52.018;8.536;2024-03-02T06:21:46;15.13;;;10.93;;
11608;SDS011;5860;52.018;8.536;2024-03-02T06:24:13;14.63;;;11.07;;
11608;SDS011;5860;52.018;8.536;2024-03-02T06:26:40;15.93;;;11.73;;
11608;SDS011;5860;52.018;8.536;2024-03-02T06:29:07;14.43;;;9.93;;
11608;SDS011;5860;52.018;8.536;2024-03-02T06:31:34;15.50;;;11.20;;
11608;SDS011;5860;52.018;8.536;2024-03-02T06:34:01;16.27;;;10.83;;
11608;SDS011;5860;52.018;8.536;2024-03-02T06:36:30;15.83;;;11.43;;
11608;SDS011;5860;52.018;8.536;2024-03-02T06:38:57;14.47;;;11.33;;
11608;SDS011;5860;52.018;8.536;2024-03-02T06:41:24;14.30;;;10.77;;
11608;SDS011;5860;52.018;8.536;2024-03-02T06:43:51;14.93;;;11.00;;
11608;SDS011;5860;52.018;8.536;2024-03-02T06:46:25;12.60;;;10.17;;
11608;SDS011;5860;52.018;8.536;2024-03-02T06:48:52;15.37;;;11.03;;
11608;SDS011;5860;52.018;8.536;2024-03-02T06:51:19;16.20;;;10.13;;
11608;SDS011;5860;52.018;8.536;2024-03-02T06:53:46;13.43;;;9.90;;
11608;SDS011;5860;52.018;8.536;2024-03-02T06:56:13;14.23;;;10.37;;
11608;SDS011;5860;52.018;8.536;2024-03-02T06:58:40;15.90;;;10.67;;
11608;SDS011;5860;52.018;8.536;2024-03-02T07:01:09;13.93;;;10.50;;
11608;SDS011;5860;52.018;8.536;2024-03-02T07:03:36;13.87;;;10.23;;
11608;SDS011;5860;52.018;8.536;2024-03-02T07:06:03;14.77;;;10.53;;
11608;SDS011;5860;52.018;8.536;2024-03-02T07:08:30;15.50;;;10.70;;
11608;SDS011;5860;52.018;8.536;2024-03-02T07:11:00;15.73;;;10.83;;
11608;SDS011;5860;52.018;8.536;2024-03-02T07:13:27;14.10;;;10.17;;
11608;SDS011;5860;52.018;8.536;2024-03-02T07:15:54;17.67;;;11.27;;
11608;SDS011;5860;52.018;8.536;2024-03-02T07:18:30;14.80;;;11.27;;
11608;SDS011;5860;52.018;8.536;2024-03-02T07:20:57;13.80;;;10.60;;
11608;SDS011;5860;52.018;8.536;2024-03-02T07:23:25;14.97;;;11.00;;
11608;SDS011;5860;52.018;8.536;2024-03-02T07:25:53;14.07;;;10.63;;
11608;SDS011;5860;52.018;8.536;2024-03-02T07:28:26;13.90;;;10.87;;
11608;SDS011;5860;52.018;8.536;2024-03-02T07:33:28;13.97;;;10.33;;
11608;SDS011;5860;52.018;8.536;2024-03-02T07:35:55;13.33;;;10.47;;
11608;SDS011;5860;52.018;8.536;2024-03-02T07:38:22;15.67;;;10.93;;
11608;SDS011;5860;52.018;8.536;2024-03-02T07:40:49;14.70;;;10.10;;
11608;SDS011;5860;52.018;8.536;2024-03-02T07:43:19;14.30;;;10.53;;
11608;SDS011;5860;52.018;8.536;2024-03-02T07:45:46;16.07;;;11.50;;
11608;SDS011;5860;52.018;8.536;2024-03-02T07:48:14;14.73;;;10.00;;
11608;SDS011;5860;52.018;8.536;2024-03-02T07:50:41;16.63;;;10.73;;
11608;SDS011;5860;52.018;8.536;2024-03-02T07:53:09;13.37;;;10.67;;
11608;SDS011;5860;52.018;8.536;2024-03-02T07:55:36;15.67;;;11.23;;
11608;SDS011;5860;52.018;8.536;2024-03-02T07:58:03;15.47;;;10.43;;
11608;SDS011;5860;52.018;8.536;2024-03-02T08:00:30;14.03;;;10.80;;
11608;SDS011;5860;52.018;8.536;2024-03-02T08:03:00;14.20;;;10.30;;
11608;SDS011;5860;52.018;8.536;2024-03-02T08:05:27;13.33;;;10.43;;
11608;SDS011;5860;52.018;8.536;2024-03-02T08:07:54;14.27;;;11.50;;
11608;SDS011;5860;52.018;8.536;2024-03-02T08:10:21;14.27;;;9.70;;
11608;SDS011;5860;52.018;8.536;2024-03-02T08:12:48;12.50;;;9.47;;
11608;SDS011;5860;52.018;8.536;2024-03-02T08:15:15;14.77;;;10.23;;
11608;SDS011;5860;52.018;8.536;2024-03-02T08:17:42;12.27;;;9.67;;
11608;SDS011;5860;52.018;8.536;2024-03-02T08:20:11;12.00;;;9.10;;
11608;SDS011;5860;52.018;8.536;2024-03-02T08:22:39;10.50;;;8.47;;
11608;SDS011;5860;52.018;8.536;2024-03-02T08:25:07;14.20;;;10.20;;
11608;SDS011;5860;52.018;8.536;2024-03-02T08:27:34;13.20;;;9.07;;
11608;SDS011;5860;52.018;8.536;2024-03-02T08:30:03;10.70;;;8.63;;
11608;SDS011;5860;52.018;8.536;2024-03-02T08:32:33;11.77;;;9.17;;
11608;SDS011;5860;52.018;8.536;2024-03-02T08:35:01;11.93;;;8.70;;
11608;SDS011;5860;52.018;8.536;2024-03-02T08:37:28;9.87;;;7.57;;
11608;SDS011;5860;52.018;8.536;2024-03-02T08:39:55;12.40;;;7.87;;
11608;SDS011;5860;52.018;8.536;2024-03-02T08:42:22;11.73;;;7.77;;
11608;SDS011;5860;52.018;8.536;2024-03-02T08:44:49;9.33;;;7.43;;
11608;SDS011;5860;52.018;8.536;2024-03-02T08:47:16;11.20;;;7.57;;
11608;SDS011;5860;52.018;8.536;2024-03-02T08:49:43;9.67;;;7.07;;
11608;SDS011;5860;52.018;8.536;2024-03-02T08:52:10;9.03;;;6.77;;
11608;SDS011;5860;52.018;8.536;2024-03-02T08:54:37;8.37;;;5.80;;
11608;SDS011;5860;52.018;8.536;2024-03-02T08:57:05;12.10;;;6.50;;
11608;SDS011;5860;52.018;8.536;2024-03-02T08:59:32;8.13;;;6.77;;
11608;SDS011;5860;52.018;8.536;2024-03-02T09:01:59;9.00;;;6.60;;
11608;SDS011;5860;52.018;8.536;2024-03-02T09:04:27;10.33;;;6.70;;
11608;SDS011;5860;52.018;8.536;2024-03-02T09:06:58;7.60;;;6.60;;
11608;SDS011;5860;52.018;8.536;2024-03-02T09:09:26;9.30;;;6.87;;
11608;SDS011;5860;52.018;8.536;2024-03-02T09:11:53;9.13;;;6.77;;
11608;SDS011;5860;52.018;8.536;2024-03-02T09:14:21;7.30;;;6.13;;
11608;SDS011;5860;52.018;8.536;2024-03-02T09:16:48;9.00;;;6.63;;
11608;SDS011;5860;52.018;8.536;2024-03-02T09:19:15;9.17;;;6.17;;
11608;SDS011;5860;52.018;8.536;2024-03-02T09:21:42;7.57;;;5.43;;
11608;SDS011;5860;52.018;8.536;2024-03-02T09:24:10;7.83;;;5.93;;
11608;SDS011;5860;52.018;8.536;2024-03-02T09:26:40;8.13;;;5.77;;
11608;SDS011;5860;52.018;8.536;2024-03-02T09:29:07;6.70;;;4.67;;
11608;SDS011;5860;52.018;8.536;2024-03-02T09:31:38;6.17;;;4.70;;
11608;SDS011;5860;52.018;8.536;2024-03-02T09:34:07;6.13;;;4.00;;
11608;SDS011;5860;52.018;8.536;2024-03-02T09:36:34;5.83;;;4.27;;
11608;SDS011;5860;52.018;8.536;2024-03-02T09:39:02;6.37;;;3.90;;
11608;SDS011;5860;52.018;8.536;2024-03-02T09:41:30;5.07;;;3.80;;
11608;SDS011;5860;52.018;8.536;2024-03-02T09:43:59;5.87;;;4.60;;
11608;SDS011;5860;52.018;8.536;2024-03-02T09:46:26;5.50;;;4.13;;
11608;SDS011;5860;52.018;8.536;2024-03-02T09:48:54;4.60;;;3.77;;
11608;SDS011;5860;52.018;8.536;2024-03-02T09:51:21;6.30;;;4.13;;
11608;SDS011;5860;52.018;8.536;2024-03-02T09:53:48;6.27;;;4.40;;
11608;SDS011;5860;52.018;8.536;2024-03-02T09:56:16;6.90;;;4.93;;
11608;SDS011;5860;52.018;8.536;2024-03-02T09:58:44;8.77;;;5.80;;
11608;SDS011;5860;52.018;8.536;2024-03-02T10:01:11;6.30;;;5.20;;
11608;SDS011;5860;52.018;8.536;2024-03-02T10:03:38;7.20;;;5.60;;
11608;SDS011;5860;52.018;8.536;2024-03-02T10:08:51;8.40;;;6.40;;
11608;SDS011;5860;52.018;8.536;2024-03-02T10:11:25;9.70;;;6.07;;
11608;SDS011;5860;52.018;8.536;2024-03-02T10:16:37;6.90;;;5.73;;
11608;SDS011;5860;52.018;8.536;2024-03-02T10:19:15;10.00;;;7.10;;
11608;SDS011;5860;52.018;8.536;2024-03-02T10:21:53;7.27;;;5.73;;
11608;SDS011;5860;52.018;8.536;2024-03-02T10:24:22;6.33;;;5.07;;
11608;SDS011;5860;52.018;8.536;2024-03-02T10:26:49;6.37;;;5.20;;
11608;SDS011;5860;52.018;8.536;2024-03-02T10:29:17;8.97;;;6.50;;
11608;SDS011;5860;52.018;8.536;2024-03-02T10:31:45;8.17;;;5.73;;
11608;SDS011;5860;52.018;8.536;2024-03-02T10:34:13;7.27;;;4.60;;
11608;SDS011;5860;52.018;8.536;2024-03-02T10:36:41;10.73;;;7.23;;
11608;SDS011;5860;52.018;8.536;2024-03-02T10:39:09;6.73;;;5.27;;
11608;SDS011;5860;52.018;8.536;2024-03-02T10:41:36;7.27;;;5.60;;
11608;SDS011;5860;52.018;8.536;2024-03-02T10:44:05;21.40;;;11.47;;
11608;SDS011;5860;52.018;8.536;2024-03-02T10:46:33;7.07;;;5.10;;
11608;SDS011;5860;52.018;8.536;2024-03-02T10:49:02;6.13;;;5.07;;
11608;SDS011;5860;52.018;8.536;2024-03-02T10:51:34;8.17;;;4.77;;
11608;SDS011;5860;52.018;8.536;2024-03-02T10:54:03;8.97;;;5.70;;
11608;SDS011;5860;52.018;8.536;2024-03-02T10:56:41;6.43;;;4.60;;
11608;SDS011;5860;52.018;8.536;2024-03-02T11:02:00;7.17;;;4.50;;
11608;SDS011;5860;52.018;8.536;2024-03-02T11:04:31;4.83;;;4.03;;
11608;SDS011;5860;52.018;8.536;2024-03-02T11:07:08;5.30;;;4.47;;
11608;SDS011;5860;52.018;8.536;2024-03-02T11:09:40;4.97;;;3.50;;
11608;SDS011;5860;52.018;8.536;2024-03-02T11:14:55;4.97;;;3.20;;
11608;SDS011;5860;52.018;8.536;2024-03-02T11:17:22;4.03;;;3.20;;
11608;SDS011;5860;52.018;8.536;2024-03-02T11:19:50;7.30;;;4.50;;
11608;SDS011;5860;52.018;8.536;2024-03-02T11:22:17;5.13;;;4.53;;
11608;SDS011;5860;52.018;8.536;2024-03-02T11:24:49;5.37;;;4.23;;
11608;SDS011;5860;52.018;8.536;2024-03-02T11:32:59;6.03;;;4.10;;
11608;SDS011;5860;52.018;8.536;2024-03-02T11:35:26;4.30;;;3.83;;
11608;SDS011;5860;52.018;8.536;2024-03-02T11:37:56;5.33;;;4.03;;
11608;SDS011;5860;52.018;8.536;2024-03-02T11:40:25;4.80;;;4.30;;
11608;SDS011;5860;52.018;8.536;2024-03-02T11:42:52;7.97;;;5.17;;
11608;SDS011;5860;52.018;8.536;2024-03-02T11:45:37;6.90;;;4.77;;
11608;SDS011;5860;52.018;8.536;2024-03-02T11:48:10;6.07;;;4.60;;
11608;SDS011;5860;52.018;8.536;2024-03-02T11:50:41;7.23;;;3.93;;
11608;SDS011;5860;52.018;8.536;2024-03-02T11:53:12;5.50;;;4.13;;
11608;SDS011;5860;52.018;8.536;2024-03-02T11:55:40;5.73;;;4.40;;
11608;SDS011;5860;52.018;8.536;2024-03-02T11:58:07;4.93;;;4.20;;
11608;SDS011;5860;52.018;8.536;2024-03-02T12:00:34;7.00;;;4.33;;
11608;SDS011;5860;52.018;8.536;2024-03-02T12:03:03;5.77;;;4.57;;
11608;SDS011;5860;52.018;8.536;2024-03-02T12:05:31;6.83;;;4.57;;
11608;SDS011;5860;52.018;8.536;2024-03-02T12:07:59;5.47;;;4.00;;
11608;SDS011;5860;52.018;8.536;2024-03-02T12:10:27;6.50;;;5.13;;
11608;SDS011;5860;52.018;8.536;2024-03-02T12:15:31;7.83;;;4.60;;
11608;SDS011;5860;52.018;8.536;2024-03-02T12:18:00;8.23;;;4.60;;
11608;SDS011;5860;52.018;8.536;2024-03-02T12:20:28;6.90;;;4.37;;
11608;SDS011;5860;52.018;8.536;2024-03-02T12:22:58;5.77;;;4.57;;
11608;SDS011;5860;52.018;8.536;2024-03-02T12:25:26;6.83;;;4.90;;
11608;SDS011;5860;52.018;8.536;2024-03-02T12:27:55;5.60;;;4.13;;
11608;SDS011;5860;52.018;8.536;2024-03-02T12:30:22;4.70;;;3.77;;
11608;SDS011;5860;52.018;8.536;2024-03-02T12:32:50;6.63;;;4.27;;
11608;SDS011;5860;52.018;8.536;2024-03-02T12:35:17;5.10;;;4.20;;
11608;SDS011;5860;52.018;8.536;2024-03-02T12:37:45;5.83;;;4.13;;
11608;SDS011;5860;52.018;8.536;2024-03-02T12:40:17;5.20;;;3.93;;
11608;SDS011;5860;52.018;8.536;2024-03-02T12:42:45;5.00;;;4.10;;
11608;SDS011;5860;52.018;8.536;2024-03-02T12:45:13;5.13;;;4.10;;
11608;SDS011;5860;52.018;8.536;2024-03-02T12:47:40;4.77;;;3.70;;
11608;SDS011;5860;52.018;8.536;2024-03-02T12:50:09;4.70;;;3.10;;
11608;SDS011;5860;52.018;8.536;2024-03-02T12:52:36;5.37;;;3.60;;
11608;SDS011;5860;52.018;8.536;2024-03-02T12:55:06;5.10;;;3.50;;
11608;SDS011;5860;52.018;8.536;2024-03-02T12:57:33;8.03;;;3.70;;
11608;SDS011;5860;52.018;8.536;2024-03-02T13:00:01;4.90;;;3.90;;
11608;SDS011;5860;52.018;8.536;2024-03-02T13:02:56;5.20;;;3.77;;
11608;SDS011;5860;52.018;8.536;2024-03-02T13:05:31;8.63;;;3.83;;
11608;SDS011;5860;52.018;8.536;2024-03-02T13:07:59;4.40;;;3.10;;
11608;SDS011;5860;52.018;8.536;2024-03-02T13:10:27;3.60;;;2.87;;
11608;SDS011;5860;52.018;8.536;2024-03-02T13:12:54;4.70;;;2.97;;
11608;SDS011;5860;52.018;8.536;2024-03-02T13:15:22;3.03;;;2.33;;
11608;SDS011;5860;52.018;8.536;2024-03-02T13:17:49;2.87;;;2.50;;
11608;SDS011;5860;52.018;8.536;2024-03-02T13:20:17;3.40;;;2.93;;
11608;SDS011;5860;52.018;8.536;2024-03-02T13:22:46;3.57;;;2.90;;
11608;SDS011;5860;52.018;8.536;2024-03-02T13:25:13;3.63;;;2.90;;
11608;SDS011;5860;52.018;8.536;2024-03-02T13:27:41;2.93;;;2.50;;
11608;SDS011;5860;52.018;8.536;2024-03-02T13:30:08;5.50;;;2.70;;
11608;SDS011;5860;52.018;8.536;2024-03-02T13:32:35;3.47;;;2.77;;
11608;SDS011;5860;52.018;8.536;2024-03-02T13:35:03;4.53;;;3.63;;
11608;SDS011;5860;52.018;8.536;2024-03-02T13:37:30;3.33;;;2.90;;
11608;SDS011;5860;52.018;8.536;2024-03-02T13:39:59;4.97;;;3.33;;
11608;SDS011;5860;52.018;8.536;2024-03-02T13:42:26;5.60;;;3.00;;
11608;SDS011;5860;52.018;8.536;2024-03-02T13:44:54;5.13;;;3.07;;
11608;SDS011;5860;52.018;8.536;2024-03-02T13:47:21;3.33;;;2.93;;
11608;SDS011;5860;52.018;8.536;2024-03-02T13:49:48;4.60;;;3.47;;
11608;SDS011;5860;52.018;8.536;2024-03-02T13:52:15;3.93;;;3.03;;
11608;SDS011;5860;52.018;8.536;2024-03-02T13:54:47;3.17;;;2.77;;
11608;SDS011;5860;52.018;8.536;2024-03-02T13:57:14;3.63;;;2.60;;
11608;SDS011;5860;52.018;8.536;2024-03-02T13:59:41;5.00;;;2.63;;
11608;SDS011;5860;52.018;8.536;2024-03-02T14:02:10;3.93;;;2.80;;
11608;SDS011;5860;52.018;8.536;2024-03-02T14:04:39;3.33;;;2.63;;
11608;SDS011;5860;52.018;8.536;2024-03-02T14:07:06;2.93;;;2.43;;
11608;SDS011;5860;52.018;8.536;2024-03-02T14:09:34;4.17;;;2.63;;
11608;SDS011;5860;52.018;8.536;2024-03-02T14:12:01;3.20;;;2.57;;
11608;SDS011;5860;52.018;8.536;2024-03-02T14:14:29;6.53;;;3.53;;
11608;SDS011;5860;52.018;8.536;2024-03-02T14:16:56;4.50;;;3.17;;
11608;SDS011;5860;52.018;8.536;2024-03-02T14:19:27;5.37;;;3.00;;
11608;SDS011;5860;52.018;8.536;2024-03-02T14:21:53;3.30;;;2.30;;
11608;SDS011;5860;52.018;8.536;2024-03-02T14:24:20;2.83;;;2.30;;
11608;SDS011;5860;52.018;8.536;2024-03-02T14:26:50;3.53;;;2.40;;
11608;SDS011;5860;52.018;8.536;2024-03-02T14:29:21;2.80;;;2.27;;
11608;SDS011;5860;52.018;8.536;2024-03-02T14:31:48;3.67;;;2.53;;
11608;SDS011;5860;52.018;8.536;2024-03-02T14:34:15;3.03;;;2.50;;
11608;SDS011;5860;52.018;8.536;2024-03-02T14:36:42;2.63;;;2.20;;
11608;SDS011;5860;52.018;8.536;2024-03-02T14:39:10;2.60;;;2.37;;
11608;SDS011;5860;52.018;8.536;2024-03-02T14:41:37;3.37;;;2.50;;
11608;SDS011;5860;52.018;8.536;2024-03-02T14:44:05;3.20;;;2.20;;
11608;SDS011;5860;52.018;8.536;2024-03-02T14:46:32;5.40;;;2.53;;
11608;SDS011;5860;52.018;8.536;2024-03-02T14:49:00;3.13;;;2.40;;
11608;SDS011;5860;52.018;8.536;2024-03-02T14:51:27;2.63;;;1.97;;
11608;SDS011;5860;52.018;8.536;2024-03-02T14:53:56;2.40;;;2.13;;
11608;SDS011;5860;52.018;8.536;2024-03-02T14:56:23;2.23;;;2.03;;
11608;SDS011;5860;52.018;8.536;2024-03-02T14:58:50;3.20;;;2.10;;
11608;SDS011;5860;52.018;8.536;2024-03-02T15:01:17;2.40;;;2.20;;
11608;SDS011;5860;52.018;8.536;2024-03-02T15:03:44;2.87;;;2.20;;
11608;SDS011;5860;52.018;8.536;2024-03-02T15:06:11;2.80;;;1.90;;
11608;SDS011;5860;52.018;8.536;2024-03-02T15:08:38;3.03;;;1.70;;
11608;SDS011;5860;52.018;8.536;2024-03-02T15:11:08;2.13;;;1.70;;
11608;SDS011;5860;52.018;8.536;2024-03-02T15:13:35;2.07;;;1.70;;
11608;SDS011;5860;52.018;8.536;2024-03-02T15:16:03;3.00;;;1.80;;
11608;SDS011;5860;52.018;8.536;2024-03-02T15:18:30;2.60;;;1.87;;
11608;SDS011;5860;52.018;8.536;2024-03-02T15:20:57;3.53;;;2.20;;